sensor_id;sensor_type;location;lat;lon;timestamp;P1;durP1;ratioP1;P2;durP2;ratioP2
41043;SDS011;51680;49.806;18.774;2022-11-20T00:02:52;46.00;;;24.90;;
41043;SDS011;51680;49.806;18.774;2022-11-20T00:05:54;46.15;;;25.52;;
41043;SDS011;51680;49.806;18.774;2022-11-20T00:09:00;44.58;;;24.92;;
41043;SDS011;51680;49.806;18.774;2022-11-20T00:12:02;49.58;;;26.88;;
41043;SDS011;51680;49.806;18.774;2022-11-20T00:15:06;43.63;;;24.77;;
41043;SDS011;51680;49.806;18.774;2022-11-20T00:18:10;48.83;;;25.33;;
41043;SDS011;51680;49.806;18.774;2022-11-20T00:21:12;49.10;;;26.70;;
41043;SDS011;51680;49.806;18.774;2022-11-20T00:24:15;55.13;;;28.27;;
41043;SDS011;51680;49.806;18.774;2022-11-20T00:27:17;50.00;;;27.60;;
41043;SDS011;51680;49.806;18.774;2022-11-20T00:30:18;50.03;;;26.40;;
41043;SDS011;51680;49.806;18.774;2022-11-20T00:33:22;54.78;;;28.95;;
41043;SDS011;51680;49.806;18.774;2022-11-20T00:36:24;57.10;;;32.00;;
41043;SDS011;51680;49.806;18.774;2022-11-20T00:39:28;55.05;;;29.67;;
41043;SDS011;51680;49.806;18.774;2022-11-20T00:42:29;59.83;;;31.10;;
41043;SDS011;51680;49.806;18.774;2022-11-20T00:45:32;93.80;;;45.45;;
41043;SDS011;51680;49.806;18.774;2022-11-20T00:48:36;82.85;;;41.38;;
41043;SDS011;51680;49.806;18.774;2022-11-20T00:51:37;58.45;;;29.40;;
41043;SDS011;51680;49.806;18.774;2022-11-20T00:54:39;72.88;;;36.35;;
41043;SDS011;51680;49.806;18.774;2022-11-20T00:57:41;100.60;;;48.85;;
41043;SDS011;51680;49.806;18.774;2022-11-20T01:00:43;127.70;;;58.40;;
41043;SDS011;51680;49.806;18.774;2022-11-20T01:03:46;125.60;;;61.25;;
41043;SDS011;51680;49.806;18.774;2022-11-20T01:06:49;129.40;;;60.63;;
41043;SDS011;51680;49.806;18.774;2022-11-20T01:09:51;115.65;;;57.20;;
41043;SDS011;51680;49.806;18.774;2022-11-20T01:12:53;106.60;;;52.45;;
41043;SDS011;51680;49.806;18.774;2022-11-20T01:16:10;98.65;;;47.58;;
41043;SDS011;51680;49.806;18.774;2022-11-20T01:19:15;99.13;;;48.65;;
41043;SDS011;51680;49.806;18.774;2022-11-20T01:22:19;95.32;;;47.30;;
41043;SDS011;51680;49.806;18.774;2022-11-20T01:25:20;92.78;;;44.58;;
41043;SDS011;51680;49.806;18.774;2022-11-20T01:28:22;86.22;;;42.33;;
41043;SDS011;51680;49.806;18.774;2022-11-20T01:31:25;93.05;;;45.97;;
41043;SDS011;51680;49.806;18.774;2022-11-20T01:34:29;102.75;;;50.45;;
41043;SDS011;51680;49.806;18.774;2022-11-20T01:37:31;103.25;;;48.53;;
41043;SDS011;51680;49.806;18.774;2022-11-20T01:40:33;93.38;;;46.03;;
41043;SDS011;51680;49.806;18.774;2022-11-20T01:43:35;82.63;;;39.05;;
41043;SDS011;51680;49.806;18.774;2022-11-20T01:46:36;86.32;;;42.10;;
41043;SDS011;51680;49.806;18.774;2022-11-20T01:49:42;81.55;;;40.00;;
41043;SDS011;51680;49.806;18.774;2022-11-20T01:52:49;79.20;;;40.53;;
41043;SDS011;51680;49.806;18.774;2022-11-20T01:55:55;84.65;;;42.53;;
41043;SDS011;51680;49.806;18.774;2022-11-20T01:58:59;89.40;;;43.42;;
41043;SDS011;51680;49.806;18.774;2022-11-20T02:02:05;82.93;;;41.63;;
41043;SDS011;51680;49.806;18.774;2022-11-20T02:05:12;75.57;;;36.80;;
41043;SDS011;51680;49.806;18.774;2022-11-20T02:08:18;51.58;;;26.80;;
41043;SDS011;51680;49.806;18.774;2022-11-20T02:11:21;50.00;;;24.98;;
41043;SDS011;51680;49.806;18.774;2022-11-20T02:14:23;48.35;;;25.80;;
41043;SDS011;51680;49.806;18.774;2022-11-20T02:17:25;64.45;;;33.60;;
41043;SDS011;51680;49.806;18.774;2022-11-20T02:20:28;76.35;;;37.38;;
41043;SDS011;51680;49.806;18.774;2022-11-20T02:23:31;73.65;;;37.25;;
41043;SDS011;51680;49.806;18.774;2022-11-20T02:26:40;85.75;;;40.78;;
41043;SDS011;51680;49.806;18.774;2022-11-20T02:29:47;89.78;;;43.05;;
41043;SDS011;51680;49.806;18.774;2022-11-20T02:32:53;118.88;;;56.50;;
41043;SDS011;51680;49.806;18.774;2022-11-20T02:35:54;106.65;;;50.38;;
41043;SDS011;51680;49.806;18.774;2022-11-20T02:38:56;86.22;;;39.53;;
41043;SDS011;51680;49.806;18.774;2022-11-20T02:42:00;81.55;;;38.35;;
41043;SDS011;51680;49.806;18.774;2022-11-20T02:45:02;73.10;;;37.05;;
41043;SDS011;51680;49.806;18.774;2022-11-20T02:48:05;69.63;;;34.95;;
41043;SDS011;51680;49.806;18.774;2022-11-20T02:51:08;73.43;;;35.40;;
41043;SDS011;51680;49.806;18.774;2022-11-20T02:54:10;71.97;;;36.92;;
41043;SDS011;51680;49.806;18.774;2022-11-20T02:57:13;66.57;;;35.40;;
41043;SDS011;51680;49.806;18.774;2022-11-20T03:00:15;66.13;;;34.50;;
41043;SDS011;51680;49.806;18.774;2022-11-20T03:03:17;72.28;;;37.80;;
41043;SDS011;51680;49.806;18.774;2022-11-20T03:06:18;75.28;;;37.20;;
41043;SDS011;51680;49.806;18.774;2022-11-20T03:09:20;66.68;;;35.42;;
41043;SDS011;51680;49.806;18.774;2022-11-20T03:12:24;66.57;;;35.17;;
41043;SDS011;51680;49.806;18.774;2022-11-20T03:15:25;66.80;;;35.42;;
41043;SDS011;51680;49.806;18.774;2022-11-20T03:18:27;67.53;;;35.88;;
41043;SDS011;51680;49.806;18.774;2022-11-20T03:21:30;72.68;;;37.65;;
41043;SDS011;51680;49.806;18.774;2022-11-20T03:24:31;75.78;;;37.20;;
41043;SDS011;51680;49.806;18.774;2022-11-20T03:27:34;72.72;;;37.40;;
41043;SDS011;51680;49.806;18.774;2022-11-20T03:30:36;66.80;;;36.15;;
41043;SDS011;51680;49.806;18.774;2022-11-20T03:33:38;70.22;;;34.78;;
41043;SDS011;51680;49.806;18.774;2022-11-20T03:36:41;65.97;;;34.15;;
41043;SDS011;51680;49.806;18.774;2022-11-20T03:39:44;69.47;;;33.97;;
41043;SDS011;51680;49.806;18.774;2022-11-20T03:42:47;63.92;;;33.00;;
41043;SDS011;51680;49.806;18.774;2022-11-20T03:45:48;72.45;;;32.78;;
41043;SDS011;51680;49.806;18.774;2022-11-20T03:48:50;61.75;;;32.45;;
41043;SDS011;51680;49.806;18.774;2022-11-20T03:51:53;56.90;;;28.73;;
41043;SDS011;51680;49.806;18.774;2022-11-20T03:54:55;65.57;;;31.05;;
41043;SDS011;51680;49.806;18.774;2022-11-20T03:57:58;61.17;;;31.35;;
41043;SDS011;51680;49.806;18.774;2022-11-20T04:01:04;60.92;;;31.88;;
41043;SDS011;51680;49.806;18.774;2022-11-20T04:04:07;64.60;;;33.20;;
41043;SDS011;51680;49.806;18.774;2022-11-20T04:07:09;64.80;;;34.20;;
41043;SDS011;51680;49.806;18.774;2022-11-20T04:10:11;64.18;;;33.72;;
41043;SDS011;51680;49.806;18.774;2022-11-20T04:13:14;68.03;;;35.45;;
41043;SDS011;51680;49.806;18.774;2022-11-20T04:16:16;62.42;;;31.30;;
41043;SDS011;51680;49.806;18.774;2022-11-20T04:19:18;57.33;;;30.70;;
41043;SDS011;51680;49.806;18.774;2022-11-20T04:22:20;57.00;;;29.25;;
41043;SDS011;51680;49.806;18.774;2022-11-20T04:25:22;59.13;;;29.10;;
41043;SDS011;51680;49.806;18.774;2022-11-20T04:28:25;53.75;;;29.17;;
41043;SDS011;51680;49.806;18.774;2022-11-20T04:31:27;58.10;;;29.73;;
41043;SDS011;51680;49.806;18.774;2022-11-20T04:34:31;61.20;;;30.73;;
41043;SDS011;51680;49.806;18.774;2022-11-20T04:37:32;52.63;;;27.88;;
41043;SDS011;51680;49.806;18.774;2022-11-20T04:40:34;53.25;;;28.73;;
41043;SDS011;51680;49.806;18.774;2022-11-20T04:43:37;56.40;;;28.42;;
41043;SDS011;51680;49.806;18.774;2022-11-20T04:46:39;54.50;;;27.90;;
41043;SDS011;51680;49.806;18.774;2022-11-20T04:49:42;54.03;;;27.60;;
41043;SDS011;51680;49.806;18.774;2022-11-20T04:52:44;54.83;;;27.20;;
41043;SDS011;51680;49.806;18.774;2022-11-20T04:55:46;51.20;;;26.65;;
41043;SDS011;51680;49.806;18.774;2022-11-20T04:58:49;50.08;;;27.60;;
41043;SDS011;51680;49.806;18.774;2022-11-20T05:01:51;45.03;;;24.83;;
41043;SDS011;51680;49.806;18.774;2022-11-20T05:04:53;43.28;;;25.13;;
41043;SDS011;51680;49.806;18.774;2022-11-20T05:07:55;40.42;;;22.95;;
41043;SDS011;51680;49.806;18.774;2022-11-20T05:10:59;40.58;;;23.75;;
41043;SDS011;51680;49.806;18.774;2022-11-20T05:14:03;41.95;;;23.00;;
41043;SDS011;51680;49.806;18.774;2022-11-20T05:17:05;42.72;;;23.80;;
41043;SDS011;51680;49.806;18.774;2022-11-20T05:20:07;45.20;;;24.92;;
41043;SDS011;51680;49.806;18.774;2022-11-20T05:23:10;42.47;;;23.30;;
41043;SDS011;51680;49.806;18.774;2022-11-20T05:26:12;45.92;;;25.88;;
41043;SDS011;51680;49.806;18.774;2022-11-20T05:29:18;46.08;;;26.48;;
41043;SDS011;51680;49.806;18.774;2022-11-20T05:32:19;49.20;;;26.30;;
41043;SDS011;51680;49.806;18.774;2022-11-20T05:35:21;45.75;;;24.27;;
41043;SDS011;51680;49.806;18.774;2022-11-20T05:38:23;43.45;;;24.35;;
41043;SDS011;51680;49.806;18.774;2022-11-20T05:41:25;41.35;;;22.92;;
41043;SDS011;51680;49.806;18.774;2022-11-20T05:44:28;43.30;;;23.00;;
41043;SDS011;51680;49.806;18.774;2022-11-20T05:47:31;48.35;;;25.83;;
41043;SDS011;51680;49.806;18.774;2022-11-20T05:50:34;50.60;;;27.08;;
41043;SDS011;51680;49.806;18.774;2022-11-20T05:53:36;56.50;;;30.05;;
41043;SDS011;51680;49.806;18.774;2022-11-20T05:56:38;55.53;;;29.65;;
41043;SDS011;51680;49.806;18.774;2022-11-20T05:59:42;51.90;;;28.73;;
41043;SDS011;51680;49.806;18.774;2022-11-20T06:02:43;53.30;;;28.83;;
41043;SDS011;51680;49.806;18.774;2022-11-20T06:05:45;49.30;;;27.55;;
41043;SDS011;51680;49.806;18.774;2022-11-20T06:08:48;55.63;;;25.15;;
41043;SDS011;51680;49.806;18.774;2022-11-20T06:11:50;44.38;;;24.25;;
41043;SDS011;51680;49.806;18.774;2022-11-20T06:14:53;44.90;;;25.17;;
41043;SDS011;51680;49.806;18.774;2022-11-20T06:17:55;42.53;;;23.45;;
41043;SDS011;51680;49.806;18.774;2022-11-20T06:21:00;43.67;;;23.77;;
41043;SDS011;51680;49.806;18.774;2022-11-20T06:24:03;46.22;;;23.50;;
41043;SDS011;51680;49.806;18.774;2022-11-20T06:27:05;45.17;;;25.38;;
41043;SDS011;51680;49.806;18.774;2022-11-20T06:30:09;46.30;;;25.00;;
41043;SDS011;51680;49.806;18.774;2022-11-20T06:33:12;49.80;;;27.17;;
41043;SDS011;51680;49.806;18.774;2022-11-20T06:36:14;52.63;;;28.33;;
41043;SDS011;51680;49.806;18.774;2022-11-20T06:39:17;50.08;;;28.25;;
41043;SDS011;51680;49.806;18.774;2022-11-20T06:42:19;53.25;;;28.38;;
41043;SDS011;51680;49.806;18.774;2022-11-20T06:45:22;56.47;;;28.95;;
41043;SDS011;51680;49.806;18.774;2022-11-20T06:48:24;57.42;;;29.05;;
41043;SDS011;51680;49.806;18.774;2022-11-20T06:51:27;48.38;;;26.92;;
41043;SDS011;51680;49.806;18.774;2022-11-20T06:54:29;49.78;;;27.08;;
41043;SDS011;51680;49.806;18.774;2022-11-20T06:57:30;50.75;;;28.38;;
41043;SDS011;51680;49.806;18.774;2022-11-20T07:00:34;47.00;;;25.83;;
41043;SDS011;51680;49.806;18.774;2022-11-20T07:03:54;49.47;;;27.38;;
41043;SDS011;51680;49.806;18.774;2022-11-20T07:06:56;54.75;;;29.40;;
41043;SDS011;51680;49.806;18.774;2022-11-20T07:09:58;56.83;;;31.42;;
41043;SDS011;51680;49.806;18.774;2022-11-20T07:12:59;63.00;;;33.58;;
41043;SDS011;51680;49.806;18.774;2022-11-20T07:16:03;59.63;;;34.25;;
41043;SDS011;51680;49.806;18.774;2022-11-20T07:19:07;62.00;;;33.78;;
41043;SDS011;51680;49.806;18.774;2022-11-20T07:22:09;59.53;;;32.78;;
41043;SDS011;51680;49.806;18.774;2022-11-20T07:25:10;59.13;;;31.65;;
41043;SDS011;51680;49.806;18.774;2022-11-20T07:28:12;62.22;;;31.73;;
41043;SDS011;51680;49.806;18.774;2022-11-20T07:31:15;56.88;;;29.65;;
41043;SDS011;51680;49.806;18.774;2022-11-20T07:34:17;59.72;;;31.20;;
41043;SDS011;51680;49.806;18.774;2022-11-20T07:37:20;56.03;;;30.05;;
41043;SDS011;51680;49.806;18.774;2022-11-20T07:40:22;57.53;;;28.92;;
41043;SDS011;51680;49.806;18.774;2022-11-20T07:43:23;52.17;;;27.80;;
41043;SDS011;51680;49.806;18.774;2022-11-20T07:46:27;58.15;;;28.45;;
41043;SDS011;51680;49.806;18.774;2022-11-20T07:49:29;54.78;;;29.08;;
41043;SDS011;51680;49.806;18.774;2022-11-20T07:52:31;57.70;;;30.73;;
41043;SDS011;51680;49.806;18.774;2022-11-20T07:55:32;64.72;;;31.90;;
41043;SDS011;51680;49.806;18.774;2022-11-20T07:58:34;58.72;;;29.38;;
41043;SDS011;51680;49.806;18.774;2022-11-20T08:01:38;62.03;;;30.45;;
41043;SDS011;51680;49.806;18.774;2022-11-20T08:04:40;66.88;;;30.20;;
41043;SDS011;51680;49.806;18.774;2022-11-20T08:07:42;60.50;;;29.95;;
41043;SDS011;51680;49.806;18.774;2022-11-20T08:11:03;58.58;;;29.38;;
41043;SDS011;51680;49.806;18.774;2022-11-20T08:14:23;53.72;;;28.88;;
41043;SDS011;51680;49.806;18.774;2022-11-20T08:17:26;59.17;;;31.25;;
41043;SDS011;51680;49.806;18.774;2022-11-20T08:20:28;66.70;;;30.92;;
41043;SDS011;51680;49.806;18.774;2022-11-20T08:23:30;60.40;;;28.73;;
41043;SDS011;51680;49.806;18.774;2022-11-20T08:26:32;52.50;;;27.15;;
41043;SDS011;51680;49.806;18.774;2022-11-20T08:29:34;60.58;;;31.73;;
41043;SDS011;51680;49.806;18.774;2022-11-20T08:32:37;58.55;;;29.02;;
41043;SDS011;51680;49.806;18.774;2022-11-20T08:35:39;55.00;;;28.88;;
41043;SDS011;51680;49.806;18.774;2022-11-20T08:38:41;53.55;;;28.58;;
41043;SDS011;51680;49.806;18.774;2022-11-20T08:41:43;58.90;;;28.67;;
41043;SDS011;51680;49.806;18.774;2022-11-20T08:44:45;52.67;;;28.23;;
41043;SDS011;51680;49.806;18.774;2022-11-20T08:47:48;47.20;;;25.42;;
41043;SDS011;51680;49.806;18.774;2022-11-20T08:50:50;49.20;;;27.65;;
41043;SDS011;51680;49.806;18.774;2022-11-20T08:53:52;51.72;;;27.77;;
41043;SDS011;51680;49.806;18.774;2022-11-20T08:56:54;51.13;;;27.75;;
41043;SDS011;51680;49.806;18.774;2022-11-20T08:59:56;54.38;;;28.30;;
41043;SDS011;51680;49.806;18.774;2022-11-20T09:02:59;52.40;;;28.50;;
41043;SDS011;51680;49.806;18.774;2022-11-20T09:06:02;51.85;;;26.70;;
41043;SDS011;51680;49.806;18.774;2022-11-20T09:12:07;49.90;;;27.48;;
41043;SDS011;51680;49.806;18.774;2022-11-20T09:15:09;44.78;;;25.92;;
41043;SDS011;51680;49.806;18.774;2022-11-20T09:18:12;44.63;;;25.23;;
41043;SDS011;51680;49.806;18.774;2022-11-20T09:21:14;39.35;;;23.15;;
41043;SDS011;51680;49.806;18.774;2022-11-20T09:24:17;35.67;;;20.83;;
41043;SDS011;51680;49.806;18.774;2022-11-20T09:27:19;39.15;;;22.42;;
41043;SDS011;51680;49.806;18.774;2022-11-20T09:30:21;44.93;;;25.27;;
41043;SDS011;51680;49.806;18.774;2022-11-20T09:33:25;43.78;;;24.25;;
41043;SDS011;51680;49.806;18.774;2022-11-20T09:36:27;52.20;;;28.60;;
41043;SDS011;51680;49.806;18.774;2022-11-20T09:39:28;49.15;;;27.08;;
41043;SDS011;51680;49.806;18.774;2022-11-20T09:42:35;66.72;;;37.30;;
41043;SDS011;51680;49.806;18.774;2022-11-20T09:45:46;58.22;;;30.38;;
41043;SDS011;51680;49.806;18.774;2022-11-20T09:49:21;79.07;;;37.67;;
41043;SDS011;51680;49.806;18.774;2022-11-20T09:52:33;76.63;;;36.90;;
41043;SDS011;51680;49.806;18.774;2022-11-20T09:55:41;62.03;;;32.42;;
41043;SDS011;51680;49.806;18.774;2022-11-20T09:58:44;75.45;;;37.50;;
41043;SDS011;51680;49.806;18.774;2022-11-20T10:01:48;68.22;;;35.28;;
41043;SDS011;51680;49.806;18.774;2022-11-20T10:04:53;66.95;;;34.65;;
41043;SDS011;51680;49.806;18.774;2022-11-20T10:08:03;70.43;;;37.75;;
41043;SDS011;51680;49.806;18.774;2022-11-20T10:11:17;73.68;;;40.45;;
41043;SDS011;51680;49.806;18.774;2022-11-20T10:14:30;70.90;;;35.42;;
41043;SDS011;51680;49.806;18.774;2022-11-20T10:17:46;69.82;;;36.05;;
41043;SDS011;51680;49.806;18.774;2022-11-20T10:21:03;68.57;;;35.20;;
41043;SDS011;51680;49.806;18.774;2022-11-20T10:28:09;78.43;;;38.53;;
41043;SDS011;51680;49.806;18.774;2022-11-20T10:31:22;100.03;;;47.20;;
41043;SDS011;51680;49.806;18.774;2022-11-20T10:34:31;96.32;;;45.03;;
41043;SDS011;51680;49.806;18.774;2022-11-20T10:37:42;109.50;;;46.78;;
41043;SDS011;51680;49.806;18.774;2022-11-20T10:40:46;84.63;;;42.80;;
41043;SDS011;51680;49.806;18.774;2022-11-20T10:43:54;81.90;;;41.20;;
41043;SDS011;51680;49.806;18.774;2022-11-20T10:47:03;84.30;;;43.67;;
41043;SDS011;51680;49.806;18.774;2022-11-20T10:50:08;57.03;;;31.17;;
41043;SDS011;51680;49.806;18.774;2022-11-20T10:53:19;96.97;;;44.70;;
41043;SDS011;51680;49.806;18.774;2022-11-20T10:56:34;132.05;;;55.13;;
41043;SDS011;51680;49.806;18.774;2022-11-20T10:59:45;81.28;;;39.45;;
41043;SDS011;51680;49.806;18.774;2022-11-20T11:02:56;77.82;;;37.28;;
41043;SDS011;51680;49.806;18.774;2022-11-20T11:06:03;79.32;;;40.45;;
41043;SDS011;51680;49.806;18.774;2022-11-20T11:09:11;60.35;;;31.85;;
41043;SDS011;51680;49.806;18.774;2022-11-20T11:12:17;56.55;;;31.23;;
41043;SDS011;51680;49.806;18.774;2022-11-20T11:15:27;55.95;;;30.73;;
41043;SDS011;51680;49.806;18.774;2022-11-20T11:18:31;53.92;;;27.90;;
41043;SDS011;51680;49.806;18.774;2022-11-20T11:21:35;55.13;;;30.58;;
41043;SDS011;51680;49.806;18.774;2022-11-20T11:24:43;53.67;;;29.40;;
41043;SDS011;51680;49.806;18.774;2022-11-20T11:27:53;56.45;;;30.75;;
41043;SDS011;51680;49.806;18.774;2022-11-20T11:30:56;49.88;;;29.25;;
41043;SDS011;51680;49.806;18.774;2022-11-20T11:34:05;51.20;;;29.83;;
41043;SDS011;51680;49.806;18.774;2022-11-20T11:37:10;52.97;;;30.85;;
41043;SDS011;51680;49.806;18.774;2022-11-20T11:40:18;61.35;;;34.70;;
41043;SDS011;51680;49.806;18.774;2022-11-20T11:43:21;54.13;;;30.23;;
41043;SDS011;51680;49.806;18.774;2022-11-20T11:46:44;59.50;;;32.72;;
41043;SDS011;51680;49.806;18.774;2022-11-20T11:50:07;54.25;;;30.33;;
41043;SDS011;51680;49.806;18.774;2022-11-20T11:53:16;53.20;;;27.27;;
41043;SDS011;51680;49.806;18.774;2022-11-20T11:56:21;51.03;;;27.73;;
41043;SDS011;51680;49.806;18.774;2022-11-20T11:59:25;51.40;;;28.48;;
41043;SDS011;51680;49.806;18.774;2022-11-20T12:02:36;54.88;;;27.65;;
41043;SDS011;51680;49.806;18.774;2022-11-20T12:05:49;49.75;;;25.85;;
41043;SDS011;51680;49.806;18.774;2022-11-20T12:08:57;44.58;;;24.98;;
41043;SDS011;51680;49.806;18.774;2022-11-20T12:12:04;37.85;;;21.10;;
41043;SDS011;51680;49.806;18.774;2022-11-20T12:15:12;36.25;;;19.42;;
41043;SDS011;51680;49.806;18.774;2022-11-20T12:18:22;31.38;;;17.38;;
41043;SDS011;51680;49.806;18.774;2022-11-20T12:21:27;31.63;;;17.38;;
41043;SDS011;51680;49.806;18.774;2022-11-20T12:24:36;24.85;;;13.90;;
41043;SDS011;51680;49.806;18.774;2022-11-20T12:27:49;23.25;;;14.52;;
41043;SDS011;51680;49.806;18.774;2022-11-20T12:31:02;25.92;;;15.80;;
41043;SDS011;51680;49.806;18.774;2022-11-20T12:34:19;32.20;;;18.85;;
41043;SDS011;51680;49.806;18.774;2022-11-20T12:37:38;32.53;;;18.45;;
41043;SDS011;51680;49.806;18.774;2022-11-20T12:40:51;32.08;;;17.67;;
41043;SDS011;51680;49.806;18.774;2022-11-20T12:44:04;28.48;;;16.35;;
41043;SDS011;51680;49.806;18.774;2022-11-20T12:47:42;33.72;;;18.83;;
41043;SDS011;51680;49.806;18.774;2022-11-20T12:51:07;38.45;;;23.05;;
41043;SDS011;51680;49.806;18.774;2022-11-20T12:54:35;44.30;;;26.80;;
41043;SDS011;51680;49.806;18.774;2022-11-20T12:57:53;36.17;;;20.25;;
41043;SDS011;51680;49.806;18.774;2022-11-20T13:01:05;34.60;;;19.58;;
41043;SDS011;51680;49.806;18.774;2022-11-20T13:04:45;29.02;;;16.58;;
41043;SDS011;51680;49.806;18.774;2022-11-20T13:07:57;32.80;;;19.23;;
41043;SDS011;51680;49.806;18.774;2022-11-20T13:11:01;27.98;;;16.70;;
41043;SDS011;51680;49.806;18.774;2022-11-20T13:14:13;34.50;;;19.17;;
41043;SDS011;51680;49.806;18.774;2022-11-20T13:17:30;31.58;;;18.13;;
41043;SDS011;51680;49.806;18.774;2022-11-20T13:20:56;32.45;;;19.42;;
41043;SDS011;51680;49.806;18.774;2022-11-20T13:24:03;30.58;;;16.15;;
41043;SDS011;51680;49.806;18.774;2022-11-20T13:27:17;26.45;;;15.70;;
41043;SDS011;51680;49.806;18.774;2022-11-20T13:30:22;28.02;;;14.15;;
41043;SDS011;51680;49.806;18.774;2022-11-20T13:33:27;28.10;;;16.70;;
41043;SDS011;51680;49.806;18.774;2022-11-20T13:36:31;28.65;;;17.20;;
41043;SDS011;51680;49.806;18.774;2022-11-20T13:39:36;28.40;;;16.80;;
41043;SDS011;51680;49.806;18.774;2022-11-20T13:42:38;28.10;;;15.13;;
41043;SDS011;51680;49.806;18.774;2022-11-20T13:45:53;30.00;;;17.45;;
41043;SDS011;51680;49.806;18.774;2022-11-20T13:48:58;28.35;;;15.05;;
41043;SDS011;51680;49.806;18.774;2022-11-20T13:52:04;26.48;;;14.95;;
41043;SDS011;51680;49.806;18.774;2022-11-20T13:55:29;28.23;;;14.88;;
41043;SDS011;51680;49.806;18.774;2022-11-20T13:58:40;36.70;;;18.80;;
41043;SDS011;51680;49.806;18.774;2022-11-20T14:01:50;34.45;;;18.05;;
41043;SDS011;51680;49.806;18.774;2022-11-20T14:04:53;41.67;;;21.40;;
41043;SDS011;51680;49.806;18.774;2022-11-20T14:07:59;37.90;;;20.30;;
41043;SDS011;51680;49.806;18.774;2022-11-20T14:11:05;56.25;;;34.42;;
41043;SDS011;51680;49.806;18.774;2022-11-20T14:14:15;37.88;;;20.73;;
41043;SDS011;51680;49.806;18.774;2022-11-20T14:17:20;29.05;;;17.55;;
41043;SDS011;51680;49.806;18.774;2022-11-20T14:20:25;37.00;;;18.88;;
41043;SDS011;51680;49.806;18.774;2022-11-20T14:23:30;37.90;;;23.67;;
41043;SDS011;51680;49.806;18.774;2022-11-20T14:26:32;36.40;;;17.23;;
41043;SDS011;51680;49.806;18.774;2022-11-20T14:29:36;38.25;;;20.80;;
41043;SDS011;51680;49.806;18.774;2022-11-20T14:32:41;32.78;;;18.60;;
41043;SDS011;51680;49.806;18.774;2022-11-20T14:35:46;35.50;;;19.98;;
41043;SDS011;51680;49.806;18.774;2022-11-20T14:38:50;39.92;;;21.05;;
41043;SDS011;51680;49.806;18.774;2022-11-20T14:41:53;33.83;;;19.00;;
41043;SDS011;51680;49.806;18.774;2022-11-20T14:44:55;34.13;;;18.00;;
41043;SDS011;51680;49.806;18.774;2022-11-20T14:47:58;38.38;;;21.65;;
41043;SDS011;51680;49.806;18.774;2022-11-20T14:51:02;34.38;;;18.98;;
41043;SDS011;51680;49.806;18.774;2022-11-20T14:54:08;33.08;;;17.77;;
41043;SDS011;51680;49.806;18.774;2022-11-20T14:57:19;36.00;;;18.90;;
41043;SDS011;51680;49.806;18.774;2022-11-20T15:00:23;34.90;;;18.60;;
41043;SDS011;51680;49.806;18.774;2022-11-20T15:03:30;37.25;;;19.25;;
41043;SDS011;51680;49.806;18.774;2022-11-20T15:06:35;39.13;;;22.50;;
41043;SDS011;51680;49.806;18.774;2022-11-20T15:12:40;38.13;;;20.45;;
41043;SDS011;51680;49.806;18.774;2022-11-20T15:15:48;37.55;;;20.27;;
41043;SDS011;51680;49.806;18.774;2022-11-20T15:18:51;37.08;;;19.83;;
41043;SDS011;51680;49.806;18.774;2022-11-20T15:21:54;36.22;;;19.08;;
41043;SDS011;51680;49.806;18.774;2022-11-20T15:24:56;34.95;;;18.17;;
41043;SDS011;51680;49.806;18.774;2022-11-20T15:27:58;36.25;;;19.27;;
41043;SDS011;51680;49.806;18.774;2022-11-20T15:31:00;35.25;;;18.20;;
41043;SDS011;51680;49.806;18.774;2022-11-20T15:34:04;37.65;;;19.73;;
41043;SDS011;51680;49.806;18.774;2022-11-20T15:37:09;44.53;;;23.05;;
41043;SDS011;51680;49.806;18.774;2022-11-20T15:40:11;45.23;;;24.00;;
41043;SDS011;51680;49.806;18.774;2022-11-20T15:43:13;46.03;;;24.70;;
41043;SDS011;51680;49.806;18.774;2022-11-20T15:46:15;47.13;;;24.92;;
41043;SDS011;51680;49.806;18.774;2022-11-20T15:49:20;51.20;;;26.40;;
41043;SDS011;51680;49.806;18.774;2022-11-20T15:52:25;47.60;;;25.52;;
41043;SDS011;51680;49.806;18.774;2022-11-20T15:55:27;48.13;;;27.08;;
41043;SDS011;51680;49.806;18.774;2022-11-20T15:58:28;47.13;;;25.75;;
41043;SDS011;51680;49.806;18.774;2022-11-20T16:01:30;39.17;;;19.65;;
41043;SDS011;51680;49.806;18.774;2022-11-20T16:04:32;38.88;;;21.52;;
41043;SDS011;51680;49.806;18.774;2022-11-20T16:07:35;36.67;;;20.25;;
41043;SDS011;51680;49.806;18.774;2022-11-20T16:10:37;35.75;;;20.00;;
41043;SDS011;51680;49.806;18.774;2022-11-20T16:13:39;37.05;;;20.58;;
41043;SDS011;51680;49.806;18.774;2022-11-20T16:16:58;39.90;;;22.38;;
41043;SDS011;51680;49.806;18.774;2022-11-20T16:20:01;50.93;;;26.37;;
41043;SDS011;51680;49.806;18.774;2022-11-20T16:23:05;52.65;;;27.95;;
41043;SDS011;51680;49.806;18.774;2022-11-20T16:26:11;51.22;;;26.13;;
41043;SDS011;51680;49.806;18.774;2022-11-20T16:29:14;44.08;;;23.65;;
41043;SDS011;51680;49.806;18.774;2022-11-20T16:32:16;46.28;;;26.05;;
41043;SDS011;51680;49.806;18.774;2022-11-20T16:35:17;58.60;;;28.83;;
41043;SDS011;51680;49.806;18.774;2022-11-20T16:38:21;76.97;;;37.65;;
41043;SDS011;51680;49.806;18.774;2022-11-20T16:41:22;60.63;;;30.33;;
41043;SDS011;51680;49.806;18.774;2022-11-20T16:44:26;47.42;;;25.23;;
41043;SDS011;51680;49.806;18.774;2022-11-20T16:47:27;47.08;;;26.65;;
41043;SDS011;51680;49.806;18.774;2022-11-20T16:50:29;50.65;;;27.77;;
41043;SDS011;51680;49.806;18.774;2022-11-20T16:53:32;43.72;;;23.58;;
41043;SDS011;51680;49.806;18.774;2022-11-20T16:56:34;37.15;;;21.17;;
41043;SDS011;51680;49.806;18.774;2022-11-20T16:59:36;33.58;;;18.05;;
41043;SDS011;51680;49.806;18.774;2022-11-20T17:02:38;33.08;;;17.55;;
41043;SDS011;51680;49.806;18.774;2022-11-20T17:05:40;32.75;;;18.30;;
41043;SDS011;51680;49.806;18.774;2022-11-20T17:08:43;28.05;;;15.95;;
41043;SDS011;51680;49.806;18.774;2022-11-20T17:14:48;29.65;;;16.63;;
41043;SDS011;51680;49.806;18.774;2022-11-20T17:17:50;33.55;;;16.98;;
41043;SDS011;51680;49.806;18.774;2022-11-20T17:20:52;27.85;;;15.50;;
41043;SDS011;51680;49.806;18.774;2022-11-20T17:23:55;27.70;;;15.43;;
41043;SDS011;51680;49.806;18.774;2022-11-20T17:26:56;29.27;;;16.27;;
41043;SDS011;51680;49.806;18.774;2022-11-20T17:29:58;30.40;;;17.65;;
41043;SDS011;51680;49.806;18.774;2022-11-20T17:33:00;32.78;;;18.02;;
41043;SDS011;51680;49.806;18.774;2022-11-20T17:36:02;35.22;;;19.33;;
41043;SDS011;51680;49.806;18.774;2022-11-20T17:39:05;43.67;;;21.75;;
41043;SDS011;51680;49.806;18.774;2022-11-20T17:42:07;41.40;;;22.92;;
41043;SDS011;51680;49.806;18.774;2022-11-20T17:45:26;45.55;;;22.27;;
41043;SDS011;51680;49.806;18.774;2022-11-20T17:48:29;39.38;;;20.90;;
41043;SDS011;51680;49.806;18.774;2022-11-20T17:51:31;46.72;;;24.10;;
41043;SDS011;51680;49.806;18.774;2022-11-20T17:54:35;44.60;;;22.75;;
41043;SDS011;51680;49.806;18.774;2022-11-20T17:57:37;46.03;;;24.40;;
41043;SDS011;51680;49.806;18.774;2022-11-20T18:00:57;49.28;;;23.58;;